sensor_id;sensor_type;location;lat;lon;timestamp;pressure;altitude;pressure_sealevel;temperature;humidity
7532;BME280;3807;49.030;8.714;2023-05-21T00:00:40;98968.56;;;21.99;51.96
7532;BME280;3807;49.030;8.714;2023-05-21T00:03:06;98973.34;;;21.94;51.89
7532;BME280;3807;49.030;8.714;2023-05-21T00:05:41;98972.09;;;21.88;52.42
7532;BME280;3807;49.030;8.714;2023-05-21T00:08:06;98969.47;;;21.78;53.04
7532;BME280;3807;49.030;8.714;2023-05-21T00:10:32;98968.91;;;21.75;52.97
7532;BME280;3807;49.030;8.714;2023-05-21T00:12:57;98964.41;;;21.77;52.54
7532;BME280;3807;49.030;8.714;2023-05-21T00:15:23;98970.69;;;21.74;52.64
7532;BME280;3807;49.030;8.714;2023-05-21T00:17:48;98967.97;;;21.76;52.78
7532;BME280;3807;49.030;8.714;2023-05-21T00:20:14;98966.75;;;21.80;52.49
7532;BME280;3807;49.030;8.714;2023-05-21T00:22:40;98970.25;;;21.69;52.96
7532;BME280;3807;49.030;8.714;2023-05-21T00:25:07;98963.41;;;21.68;52.90
7532;BME280;3807;49.030;8.714;2023-05-21T00:27:32;98966.81;;;21.59;53.27
7532;BME280;3807;49.030;8.714;2023-05-21T00:29:58;98963.13;;;21.61;53.23
7532;BME280;3807;49.030;8.714;2023-05-21T00:32:23;98961.62;;;21.59;53.23
7532;BME280;3807;49.030;8.714;2023-05-21T00:34:48;98962.13;;;21.53;53.23
7532;BME280;3807;49.030;8.714;2023-05-21T00:37:14;98949.19;;;21.53;53.33
7532;BME280;3807;49.030;8.714;2023-05-21T00:39:40;98950.41;;;21.49;53.43
7532;BME280;3807;49.030;8.714;2023-05-21T00:42:05;98948.00;;;21.36;54.03
7532;BME280;3807;49.030;8.714;2023-05-21T00:44:31;98947.91;;;21.37;53.71
7532;BME280;3807;49.030;8.714;2023-05-21T00:47:03;98939.41;;;21.35;53.87
7532;BME280;3807;49.030;8.714;2023-05-21T00:49:29;98940.03;;;21.28;54.28
7532;BME280;3807;49.030;8.714;2023-05-21T00:51:55;98934.28;;;21.24;54.05
7532;BME280;3807;49.030;8.714;2023-05-21T00:54:22;98932.63;;;21.23;54.31
7532;BME280;3807;49.030;8.714;2023-05-21T00:56:48;98929.75;;;21.16;54.55
7532;BME280;3807;49.030;8.714;2023-05-21T00:59:15;98928.81;;;21.17;54.38
7532;BME280;3807;49.030;8.714;2023-05-21T01:01:42;98924.75;;;21.25;54.10
7532;BME280;3807;49.030;8.714;2023-05-21T01:04:10;98927.03;;;21.18;54.04
7532;BME280;3807;49.030;8.714;2023-05-21T01:06:35;98934.81;;;21.18;54.31
7532;BME280;3807;49.030;8.714;2023-05-21T01:09:02;98927.22;;;21.05;54.50
7532;BME280;3807;49.030;8.714;2023-05-21T01:11:40;98926.16;;;21.08;54.51
7532;BME280;3807;49.030;8.714;2023-05-21T01:14:09;98923.75;;;20.95;54.86
7532;BME280;3807;49.030;8.714;2023-05-21T01:16:38;98924.28;;;20.89;55.19
7532;BME280;3807;49.030;8.714;2023-05-21T01:19:05;98915.88;;;20.97;54.90
7532;BME280;3807;49.030;8.714;2023-05-21T01:21:35;98916.94;;;20.94;54.98
7532;BME280;3807;49.030;8.714;2023-05-21T01:24:02;98918.25;;;20.88;55.10
7532;BME280;3807;49.030;8.714;2023-05-21T01:26:29;98915.50;;;20.80;55.22
7532;BME280;3807;49.030;8.714;2023-05-21T01:28:57;98918.00;;;20.91;54.99
7532;BME280;3807;49.030;8.714;2023-05-21T01:31:29;98910.25;;;20.91;55.00
7532;BME280;3807;49.030;8.714;2023-05-21T01:34:00;98911.37;;;20.78;55.22
7532;BME280;3807;49.030;8.714;2023-05-21T01:36:33;98908.38;;;20.73;55.52
7532;BME280;3807;49.030;8.714;2023-05-21T01:39:33;98910.50;;;20.67;55.63
7532;BME280;3807;49.030;8.714;2023-05-21T01:42:01;98909.19;;;20.73;55.35
7532;BME280;3807;49.030;8.714;2023-05-21T01:44:27;98907.72;;;20.59;55.68
7532;BME280;3807;49.030;8.714;2023-05-21T01:46:55;98909.63;;;20.57;55.83
7532;BME280;3807;49.030;8.714;2023-05-21T01:49:21;98909.63;;;20.57;55.78
7532;BME280;3807;49.030;8.714;2023-05-21T01:51:47;98908.34;;;20.52;56.09
7532;BME280;3807;49.030;8.714;2023-05-21T01:54:13;98905.75;;;20.52;56.16
7532;BME280;3807;49.030;8.714;2023-05-21T01:56:38;98899.84;;;20.50;56.10
7532;BME280;3807;49.030;8.714;2023-05-21T01:59:04;98905.16;;;20.48;56.04
7532;BME280;3807;49.030;8.714;2023-05-21T02:01:30;98900.22;;;20.45;56.18
7532;BME280;3807;49.030;8.714;2023-05-21T02:03:55;98894.25;;;20.44;56.13
7532;BME280;3807;49.030;8.714;2023-05-21T02:06:22;98894.50;;;20.41;56.22
7532;BME280;3807;49.030;8.714;2023-05-21T02:08:47;98890.63;;;20.36;56.44
7532;BME280;3807;49.030;8.714;2023-05-21T02:11:12;98895.13;;;20.34;56.45
7532;BME280;3807;49.030;8.714;2023-05-21T02:13:38;98894.97;;;20.35;56.41
7532;BME280;3807;49.030;8.714;2023-05-21T02:16:06;98896.31;;;20.30;56.46
7532;BME280;3807;49.030;8.714;2023-05-21T02:18:36;98887.97;;;20.26;56.67
7532;BME280;3807;49.030;8.714;2023-05-21T02:21:02;98895.97;;;20.23;56.59
7532;BME280;3807;49.030;8.714;2023-05-21T02:23:27;98891.72;;;20.22;56.57
7532;BME280;3807;49.030;8.714;2023-05-21T02:25:52;98892.56;;;20.22;56.59
7532;BME280;3807;49.030;8.714;2023-05-21T02:28:18;98892.25;;;20.16;56.95
7532;BME280;3807;49.030;8.714;2023-05-21T02:30:43;98886.50;;;20.12;56.81
7532;BME280;3807;49.030;8.714;2023-05-21T02:33:08;98877.31;;;20.08;57.04
7532;BME280;3807;49.030;8.714;2023-05-21T02:35:38;98880.59;;;20.10;56.88
7532;BME280;3807;49.030;8.714;2023-05-21T02:38:03;98885.78;;;20.10;56.88
7532;BME280;3807;49.030;8.714;2023-05-21T02:40:28;98883.91;;;20.12;56.94
7532;BME280;3807;49.030;8.714;2023-05-21T02:42:54;98884.19;;;19.98;57.32
7532;BME280;3807;49.030;8.714;2023-05-21T02:45:19;98885.09;;;19.97;57.17
7532;BME280;3807;49.030;8.714;2023-05-21T02:47:44;98883.72;;;19.93;57.34
7532;BME280;3807;49.030;8.714;2023-05-21T02:50:10;98878.09;;;19.88;57.45
7532;BME280;3807;49.030;8.714;2023-05-21T02:52:35;98881.75;;;19.85;57.77
7532;BME280;3807;49.030;8.714;2023-05-21T02:55:01;98882.56;;;19.86;57.63
7532;BME280;3807;49.030;8.714;2023-05-21T02:57:26;98878.69;;;19.80;57.67
7532;BME280;3807;49.030;8.714;2023-05-21T02:59:51;98877.88;;;19.80;57.70
7532;BME280;3807;49.030;8.714;2023-05-21T03:02:17;98884.94;;;19.78;57.68
7532;BME280;3807;49.030;8.714;2023-05-21T03:04:42;98880.81;;;19.75;57.80
7532;BME280;3807;49.030;8.714;2023-05-21T03:07:13;98878.09;;;19.77;57.77
7532;BME280;3807;49.030;8.714;2023-05-21T03:09:40;98873.09;;;19.64;58.09
7532;BME280;3807;49.030;8.714;2023-05-21T03:12:09;98877.31;;;19.65;58.21
7532;BME280;3807;49.030;8.714;2023-05-21T03:14:34;98875.16;;;19.59;58.17
7532;BME280;3807;49.030;8.714;2023-05-21T03:17:00;98877.88;;;19.57;58.34
7532;BME280;3807;49.030;8.714;2023-05-21T03:19:30;98873.75;;;19.55;58.31
7532;BME280;3807;49.030;8.714;2023-05-21T03:21:58;98871.31;;;19.53;58.53
7532;BME280;3807;49.030;8.714;2023-05-21T03:24:24;98870.59;;;19.51;58.40
7532;BME280;3807;49.030;8.714;2023-05-21T03:26:49;98868.38;;;19.46;58.68
7532;BME280;3807;49.030;8.714;2023-05-21T03:29:14;98860.75;;;19.45;58.45
7532;BME280;3807;49.030;8.714;2023-05-21T03:31:40;98867.91;;;19.41;58.67
7532;BME280;3807;49.030;8.714;2023-05-21T03:34:05;98861.81;;;19.42;58.49
7532;BME280;3807;49.030;8.714;2023-05-21T03:36:32;98871.31;;;19.42;58.60
7532;BME280;3807;49.030;8.714;2023-05-21T03:38:57;98867.31;;;19.38;58.87
7532;BME280;3807;49.030;8.714;2023-05-21T03:41:23;98867.69;;;19.33;58.79
7532;BME280;3807;49.030;8.714;2023-05-21T03:43:48;98868.41;;;19.35;58.87
7532;BME280;3807;49.030;8.714;2023-05-21T03:46:13;98866.16;;;19.31;58.78
7532;BME280;3807;49.030;8.714;2023-05-21T03:48:39;98872.34;;;19.28;59.01
7532;BME280;3807;49.030;8.714;2023-05-21T03:51:04;98870.72;;;19.27;58.89
7532;BME280;3807;49.030;8.714;2023-05-21T03:53:32;98865.22;;;19.20;59.14
7532;BME280;3807;49.030;8.714;2023-05-21T03:55:57;98874.03;;;19.18;59.30
7532;BME280;3807;49.030;8.714;2023-05-21T03:58:23;98868.28;;;19.14;59.37
7532;BME280;3807;49.030;8.714;2023-05-21T04:00:48;98861.69;;;19.10;59.43
7532;BME280;3807;49.030;8.714;2023-05-21T04:03:14;98873.78;;;19.10;59.48
7532;BME280;3807;49.030;8.714;2023-05-21T04:05:43;98866.97;;;19.09;59.38
7532;BME280;3807;49.030;8.714;2023-05-21T04:08:09;98877.88;;;19.12;59.50
7532;BME280;3807;49.030;8.714;2023-05-21T04:10:34;98877.28;;;19.09;59.49
7532;BME280;3807;49.030;8.714;2023-05-21T04:13:00;98872.13;;;19.09;59.43
7532;BME280;3807;49.030;8.714;2023-05-21T04:15:25;98881.75;;;19.07;59.52
7532;BME280;3807;49.030;8.714;2023-05-21T04:17:52;98886.22;;;19.04;59.75
7532;BME280;3807;49.030;8.714;2023-05-21T04:20:17;98885.72;;;18.99;59.71
7532;BME280;3807;49.030;8.714;2023-05-21T04:22:43;98886.31;;;19.03;59.74
7532;BME280;3807;49.030;8.714;2023-05-21T04:25:08;98885.63;;;19.01;59.65
7532;BME280;3807;49.030;8.714;2023-05-21T04:27:35;98890.19;;;18.97;59.56
7532;BME280;3807;49.030;8.714;2023-05-21T04:30:00;98892.06;;;18.95;59.80
7532;BME280;3807;49.030;8.714;2023-05-21T04:32:25;98891.47;;;18.92;59.73
7532;BME280;3807;49.030;8.714;2023-05-21T04:34:52;98898.75;;;18.87;60.07
7532;BME280;3807;49.030;8.714;2023-05-21T04:37:18;98896.84;;;18.89;59.96
7532;BME280;3807;49.030;8.714;2023-05-21T04:39:43;98901.41;;;18.85;60.03
7532;BME280;3807;49.030;8.714;2023-05-21T04:42:09;98896.25;;;18.85;60.05
7532;BME280;3807;49.030;8.714;2023-05-21T04:44:38;98899.06;;;18.82;59.92
7532;BME280;3807;49.030;8.714;2023-05-21T04:47:04;98910.91;;;18.85;59.67
7532;BME280;3807;49.030;8.714;2023-05-21T04:49:30;98909.38;;;18.82;59.88
7532;BME280;3807;49.030;8.714;2023-05-21T04:51:55;98897.41;;;18.81;59.89
7532;BME280;3807;49.030;8.714;2023-05-21T04:54:21;98907.88;;;18.79;59.97
7532;BME280;3807;49.030;8.714;2023-05-21T04:56:46;98901.16;;;18.77;59.96
7532;BME280;3807;49.030;8.714;2023-05-21T04:59:12;98906.44;;;18.75;60.00
7532;BME280;3807;49.030;8.714;2023-05-21T05:01:38;98915.25;;;18.73;59.79
7532;BME280;3807;49.030;8.714;2023-05-21T05:04:04;98913.66;;;18.70;60.21
7532;BME280;3807;49.030;8.714;2023-05-21T05:06:29;98914.28;;;18.74;59.89
7532;BME280;3807;49.030;8.714;2023-05-21T05:08:55;98915.94;;;18.75;59.96
7532;BME280;3807;49.030;8.714;2023-05-21T05:11:20;98918.22;;;18.67;60.07
7532;BME280;3807;49.030;8.714;2023-05-21T05:13:46;98920.09;;;18.65;60.08
7532;BME280;3807;49.030;8.714;2023-05-21T05:16:11;98916.59;;;18.66;60.33
7532;BME280;3807;49.030;8.714;2023-05-21T05:18:38;98917.06;;;18.71;59.99
7532;BME280;3807;49.030;8.714;2023-05-21T05:21:03;98916.69;;;18.64;60.09
7532;BME280;3807;49.030;8.714;2023-05-21T05:23:29;98915.16;;;18.62;60.30
7532;BME280;3807;49.030;8.714;2023-05-21T05:25:54;98917.84;;;18.60;60.42
7532;BME280;3807;49.030;8.714;2023-05-21T05:28:20;98915.28;;;18.60;60.30
7532;BME280;3807;49.030;8.714;2023-05-21T05:30:45;98912.09;;;18.56;60.39
7532;BME280;3807;49.030;8.714;2023-05-21T05:33:10;98914.53;;;18.58;60.25
7532;BME280;3807;49.030;8.714;2023-05-21T05:35:36;98913.13;;;18.54;60.57
7532;BME280;3807;49.030;8.714;2023-05-21T05:38:01;98912.44;;;18.52;60.37
7532;BME280;3807;49.030;8.714;2023-05-21T05:40:27;98909.03;;;18.51;60.55
7532;BME280;3807;49.030;8.714;2023-05-21T05:42:53;98902.13;;;18.52;60.35
7532;BME280;3807;49.030;8.714;2023-05-21T05:45:18;98903.63;;;18.54;60.40
7532;BME280;3807;49.030;8.714;2023-05-21T05:47:44;98912.25;;;18.66;60.00
7532;BME280;3807;49.030;8.714;2023-05-21T05:50:10;98908.78;;;18.54;60.40
7532;BME280;3807;49.030;8.714;2023-05-21T05:52:35;98918.44;;;18.64;60.07
7532;BME280;3807;49.030;8.714;2023-05-21T05:55:01;98915.66;;;18.67;60.03
7532;BME280;3807;49.030;8.714;2023-05-21T05:57:26;98905.16;;;18.81;59.48
7532;BME280;3807;49.030;8.714;2023-05-21T05:59:52;98911.97;;;18.82;59.34
7532;BME280;3807;49.030;8.714;2023-05-21T06:02:17;98913.25;;;18.76;59.48
7532;BME280;3807;49.030;8.714;2023-05-21T06:04:43;98914.31;;;18.61;59.91
7532;BME280;3807;49.030;8.714;2023-05-21T06:07:08;98910.59;;;18.65;59.94
7532;BME280;3807;49.030;8.714;2023-05-21T06:09:34;98906.50;;;18.63;59.98
7532;BME280;3807;49.030;8.714;2023-05-21T06:11:59;98912.91;;;18.57;60.19
7532;BME280;3807;49.030;8.714;2023-05-21T06:14:25;98917.19;;;18.69;59.93
7532;BME280;3807;49.030;8.714;2023-05-21T06:16:50;98918.63;;;18.73;59.64
7532;BME280;3807;49.030;8.714;2023-05-21T06:19:15;98923.44;;;18.78;59.56
7532;BME280;3807;49.030;8.714;2023-05-21T06:21:41;98928.41;;;18.68;59.60
7532;BME280;3807;49.030;8.714;2023-05-21T06:24:06;98916.09;;;18.61;59.99
7532;BME280;3807;49.030;8.714;2023-05-21T06:26:31;98926.63;;;18.57;60.20
7532;BME280;3807;49.030;8.714;2023-05-21T06:28:57;98921.00;;;18.52;60.25
7532;BME280;3807;49.030;8.714;2023-05-21T06:31:22;98922.22;;;18.71;59.67
7532;BME280;3807;49.030;8.714;2023-05-21T06:33:48;98928.75;;;18.64;59.86
7532;BME280;3807;49.030;8.714;2023-05-21T06:36:14;98924.66;;;18.61;60.00
7532;BME280;3807;49.030;8.714;2023-05-21T06:38:40;98923.47;;;18.65;59.88
7532;BME280;3807;49.030;8.714;2023-05-21T06:41:06;98917.72;;;18.86;59.14
7532;BME280;3807;49.030;8.714;2023-05-21T06:43:32;98916.47;;;18.67;59.70
7532;BME280;3807;49.030;8.714;2023-05-21T06:45:57;98920.69;;;18.68;59.81
7532;BME280;3807;49.030;8.714;2023-05-21T06:48:23;98920.16;;;18.76;59.50
7532;BME280;3807;49.030;8.714;2023-05-21T06:50:48;98920.41;;;18.73;59.65
7532;BME280;3807;49.030;8.714;2023-05-21T06:53:13;98915.47;;;18.81;59.38
7532;BME280;3807;49.030;8.714;2023-05-21T06:55:40;98922.19;;;18.84;59.30
7532;BME280;3807;49.030;8.714;2023-05-21T06:58:08;98922.75;;;18.76;59.55
7532;BME280;3807;49.030;8.714;2023-05-21T07:00:33;98925.44;;;18.86;59.36
7532;BME280;3807;49.030;8.714;2023-05-21T07:02:58;98922.94;;;19.08;58.68
7532;BME280;3807;49.030;8.714;2023-05-21T07:05:24;98920.13;;;19.11;58.32
7532;BME280;3807;49.030;8.714;2023-05-21T07:07:49;98920.22;;;19.10;58.55
7532;BME280;3807;49.030;8.714;2023-05-21T07:10:15;98921.84;;;19.11;58.25
7532;BME280;3807;49.030;8.714;2023-05-21T07:12:40;98922.47;;;19.14;58.10
7532;BME280;3807;49.030;8.714;2023-05-21T07:15:06;98919.53;;;19.19;58.08
7532;BME280;3807;49.030;8.714;2023-05-21T07:17:31;98915.06;;;19.21;58.06
7532;BME280;3807;49.030;8.714;2023-05-21T07:19:57;98918.28;;;19.36;57.61
7532;BME280;3807;49.030;8.714;2023-05-21T07:22:22;98907.81;;;19.37;57.74
7532;BME280;3807;49.030;8.714;2023-05-21T07:24:47;98915.47;;;19.50;59.37
7532;BME280;3807;49.030;8.714;2023-05-21T07:27:13;98910.75;;;19.44;58.64
7532;BME280;3807;49.030;8.714;2023-05-21T07:29:38;98913.81;;;19.60;58.15
7532;BME280;3807;49.030;8.714;2023-05-21T07:32:03;98907.94;;;19.69;61.10
7532;BME280;3807;49.030;8.714;2023-05-21T07:34:29;98911.47;;;19.80;60.49
7532;BME280;3807;49.030;8.714;2023-05-21T07:36:54;98909.69;;;19.80;60.57
7532;BME280;3807;49.030;8.714;2023-05-21T07:39:19;98915.81;;;19.79;59.36
7532;BME280;3807;49.030;8.714;2023-05-21T07:41:45;98907.44;;;19.98;59.34
7532;BME280;3807;49.030;8.714;2023-05-21T07:44:10;98907.53;;;20.08;59.76
7532;BME280;3807;49.030;8.714;2023-05-21T07:46:36;98908.03;;;20.02;60.26
7532;BME280;3807;49.030;8.714;2023-05-21T07:49:01;98905.69;;;19.98;59.72
7532;BME280;3807;49.030;8.714;2023-05-21T07:51:27;98896.94;;;20.11;60.31
7532;BME280;3807;49.030;8.714;2023-05-21T07:53:52;98907.25;;;20.22;60.42
7532;BME280;3807;49.030;8.714;2023-05-21T07:56:18;98898.75;;;20.31;59.63
7532;BME280;3807;49.030;8.714;2023-05-21T07:58:43;98893.78;;;20.51;59.96
7532;BME280;3807;49.030;8.714;2023-05-21T08:01:10;98898.44;;;20.57;58.90
7532;BME280;3807;49.030;8.714;2023-05-21T08:03:36;98904.06;;;20.62;58.99
7532;BME280;3807;49.030;8.714;2023-05-21T08:06:01;98904.25;;;20.70;58.95
7532;BME280;3807;49.030;8.714;2023-05-21T08:08:27;98902.63;;;20.90;58.83
7532;BME280;3807;49.030;8.714;2023-05-21T08:10:52;98903.69;;;20.87;58.75
7532;BME280;3807;49.030;8.714;2023-05-21T08:13:17;98895.66;;;20.90;58.68
7532;BME280;3807;49.030;8.714;2023-05-21T08:15:43;98904.41;;;20.89;58.45
7532;BME280;3807;49.030;8.714;2023-05-21T08:18:08;98897.69;;;21.08;58.32
7532;BME280;3807;49.030;8.714;2023-05-21T08:20:34;98897.94;;;21.05;58.84
7532;BME280;3807;49.030;8.714;2023-05-21T08:23:00;98891.22;;;21.02;58.51
7532;BME280;3807;49.030;8.714;2023-05-21T08:25:26;98894.56;;;21.14;58.65
7532;BME280;3807;49.030;8.714;2023-05-21T08:27:51;98887.78;;;21.23;58.05
7532;BME280;3807;49.030;8.714;2023-05-21T08:30:17;98889.81;;;21.19;58.75
7532;BME280;3807;49.030;8.714;2023-05-21T08:32:42;98899.09;;;21.22;58.78
7532;BME280;3807;49.030;8.714;2023-05-21T08:35:08;98884.75;;;21.38;58.71
7532;BME280;3807;49.030;8.714;2023-05-21T08:37:33;98889.53;;;21.43;59.13
7532;BME280;3807;49.030;8.714;2023-05-21T08:39:59;98890.50;;;21.42;58.43
7532;BME280;3807;49.030;8.714;2023-05-21T08:42:49;98887.31;;;21.69;58.06
7532;BME280;3807;49.030;8.714;2023-05-21T08:45:20;98882.69;;;21.82;57.96
7532;BME280;3807;49.030;8.714;2023-05-21T08:47:45;98889.06;;;21.69;58.67
7532;BME280;3807;49.030;8.714;2023-05-21T08:50:13;98878.63;;;21.80;58.34
7532;BME280;3807;49.030;8.714;2023-05-21T08:52:40;98888.81;;;21.72;58.22
7532;BME280;3807;49.030;8.714;2023-05-21T08:55:06;98889.69;;;21.92;57.80
7532;BME280;3807;49.030;8.714;2023-05-21T08:57:32;98881.91;;;22.01;57.74
7532;BME280;3807;49.030;8.714;2023-05-21T08:59:58;98886.75;;;22.16;57.42
7532;BME280;3807;49.030;8.714;2023-05-21T09:02:24;98891.62;;;22.09;57.51
7532;BME280;3807;49.030;8.714;2023-05-21T09:04:53;98894.91;;;22.11;57.26
7532;BME280;3807;49.030;8.714;2023-05-21T09:07:23;98894.81;;;22.32;56.78
7532;BME280;3807;49.030;8.714;2023-05-21T09:12:19;98899.59;;;22.46;56.32
7532;BME280;3807;49.030;8.714;2023-05-21T09:14:46;98897.53;;;22.50;56.09
7532;BME280;3807;49.030;8.714;2023-05-21T09:17:14;98901.47;;;22.44;55.62
7532;BME280;3807;49.030;8.714;2023-05-21T09:22:47;98897.25;;;22.53;56.06
7532;BME280;3807;49.030;8.714;2023-05-21T09:25:20;98898.34;;;22.60;56.04
7532;BME280;3807;49.030;8.714;2023-05-21T09:27:46;98898.31;;;22.79;54.82
7532;BME280;3807;49.030;8.714;2023-05-21T09:30:15;98898.84;;;22.83;54.57
7532;BME280;3807;49.030;8.714;2023-05-21T09:32:43;98899.81;;;23.01;54.81
7532;BME280;3807;49.030;8.714;2023-05-21T09:35:10;98897.78;;;22.95;54.51
7532;BME280;3807;49.030;8.714;2023-05-21T09:37:46;98899.09;;;23.09;54.39
7532;BME280;3807;49.030;8.714;2023-05-21T09:40:13;98901.81;;;23.17;53.81
7532;BME280;3807;49.030;8.714;2023-05-21T09:42:41;98897.28;;;23.19;53.80
7532;BME280;3807;49.030;8.714;2023-05-21T09:45:08;98901.97;;;23.16;54.83
7532;BME280;3807;49.030;8.714;2023-05-21T09:47:34;98908.75;;;23.26;53.98
7532;BME280;3807;49.030;8.714;2023-05-21T09:50:05;98905.53;;;23.42;53.72
7532;BME280;3807;49.030;8.714;2023-05-21T09:52:30;98907.50;;;23.30;53.54
7532;BME280;3807;49.030;8.714;2023-05-21T09:54:56;98912.13;;;23.37;53.81
7532;BME280;3807;49.030;8.714;2023-05-21T09:57:28;98899.31;;;23.53;53.22
7532;BME280;3807;49.030;8.714;2023-05-21T09:59:53;98899.16;;;23.64;52.84
7532;BME280;3807;49.030;8.714;2023-05-21T10:02:20;98901.88;;;23.63;51.85
7532;BME280;3807;49.030;8.714;2023-05-21T10:04:50;98908.59;;;23.65;52.24
7532;BME280;3807;49.030;8.714;2023-05-21T10:07:18;98911.69;;;23.79;52.48
7532;BME280;3807;49.030;8.714;2023-05-21T10:09:52;98908.88;;;23.90;51.57
7532;BME280;3807;49.030;8.714;2023-05-21T10:12:22;98903.91;;;23.96;51.27
7532;BME280;3807;49.030;8.714;2023-05-21T10:14:50;98906.13;;;24.09;51.87
7532;BME280;3807;49.030;8.714;2023-05-21T10:17:18;98901.56;;;24.03;52.04
7532;BME280;3807;49.030;8.714;2023-05-21T10:19:45;98900.50;;;24.14;51.94
7532;BME280;3807;49.030;8.714;2023-05-21T10:22:12;98901.31;;;24.32;50.68
7532;BME280;3807;49.030;8.714;2023-05-21T10:24:39;98904.16;;;24.39;50.81
7532;BME280;3807;49.030;8.714;2023-05-21T10:27:05;98895.84;;;24.53;50.83
7532;BME280;3807;49.030;8.714;2023-05-21T10:29:31;98893.44;;;24.60;50.38
7532;BME280;3807;49.030;8.714;2023-05-21T10:31:57;98895.53;;;24.56;50.31
7532;BME280;3807;49.030;8.714;2023-05-21T10:34:25;98895.84;;;24.53;51.10
7532;BME280;3807;49.030;8.714;2023-05-21T10:36:53;98898.16;;;24.56;51.12
7532;BME280;3807;49.030;8.714;2023-05-21T10:39:21;98899.09;;;24.73;51.04
7532;BME280;3807;49.030;8.714;2023-05-21T10:42:04;98897.00;;;24.77;50.55
7532;BME280;3807;49.030;8.714;2023-05-21T10:48:17;98896.53;;;24.81;51.09
7532;BME280;3807;49.030;8.714;2023-05-21T11:01:01;98890.97;;;25.02;50.55
7532;BME280;3807;49.030;8.714;2023-05-21T11:03:27;98891.91;;;25.19;49.81
7532;BME280;3807;49.030;8.714;2023-05-21T11:05:54;98899.41;;;25.22;50.42
7532;BME280;3807;49.030;8.714;2023-05-21T11:08:22;98896.69;;;25.32;50.14
7532;BME280;3807;49.030;8.714;2023-05-21T11:10:54;98898.34;;;25.41;49.26
7532;BME280;3807;49.030;8.714;2023-05-21T11:13:22;98892.28;;;25.32;49.24
7532;BME280;3807;49.030;8.714;2023-05-21T11:16:07;98893.13;;;25.41;48.63
7532;BME280;3807;49.030;8.714;2023-05-21T11:23:54;98890.47;;;25.67;48.99
7532;BME280;3807;49.030;8.714;2023-05-21T11:27:09;98897.81;;;25.72;49.11
7532;BME280;3807;49.030;8.714;2023-05-21T11:29:10;98884.50;;;25.83;48.19
7532;BME280;3807;49.030;8.714;2023-05-21T11:31:35;98879.28;;;25.83;48.44
7532;BME280;3807;49.030;8.714;2023-05-21T11:36:33;98884.50;;;25.83;48.69
7532;BME280;3807;49.030;8.714;2023-05-21T11:39:27;98885.50;;;25.90;48.63
7532;BME280;3807;49.030;8.714;2023-05-21T11:44:47;98882.25;;;25.96;48.47
7532;BME280;3807;49.030;8.714;2023-05-21T11:47:14;98880.13;;;26.00;48.36
7532;BME280;3807;49.030;8.714;2023-05-21T11:49:40;98884.41;;;26.09;47.83
7532;BME280;3807;49.030;8.714;2023-05-21T11:52:07;98874.09;;;26.07;48.04
7532;BME280;3807;49.030;8.714;2023-05-21T11:54:41;98882.13;;;26.22;47.34
7532;BME280;3807;49.030;8.714;2023-05-21T11:57:11;98877.69;;;26.14;47.75
7532;BME280;3807;49.030;8.714;2023-05-21T11:59:39;98883.44;;;26.34;47.10
7532;BME280;3807;49.030;8.714;2023-05-21T12:02:05;98875.91;;;26.31;47.44
7532;BME280;3807;49.030;8.714;2023-05-21T12:04:31;98881.16;;;26.40;46.90
7532;BME280;3807;49.030;8.714;2023-05-21T12:06:57;98881.00;;;26.41;47.38
7532;BME280;3807;49.030;8.714;2023-05-21T12:09:23;98877.75;;;26.55;46.04
7532;BME280;3807;49.030;8.714;2023-05-21T12:11:49;98880.34;;;26.64;44.50
7532;BME280;3807;49.030;8.714;2023-05-21T12:14:17;98886.03;;;26.83;45.61
7532;BME280;3807;49.030;8.714;2023-05-21T12:16:43;98884.38;;;26.91;45.75
7532;BME280;3807;49.030;8.714;2023-05-21T12:19:08;98882.28;;;26.86;45.70
7532;BME280;3807;49.030;8.714;2023-05-21T12:21:34;98888.66;;;26.83;46.37
7532;BME280;3807;49.030;8.714;2023-05-21T12:24:00;98882.09;;;26.96;46.16
7532;BME280;3807;49.030;8.714;2023-05-21T12:26:26;98885.53;;;26.96;45.55
7532;BME280;3807;49.030;8.714;2023-05-21T12:28:53;98877.16;;;27.09;45.30
7532;BME280;3807;49.030;8.714;2023-05-21T12:31:19;98884.50;;;27.05;45.61
7532;BME280;3807;49.030;8.714;2023-05-21T12:33:50;98883.84;;;27.12;45.59
7532;BME280;3807;49.030;8.714;2023-05-21T12:36:25;98881.91;;;27.05;45.59
7532;BME280;3807;49.030;8.714;2023-05-21T12:38:51;98880.13;;;27.14;45.57
7532;BME280;3807;49.030;8.714;2023-05-21T12:41:17;98876.94;;;27.35;44.88
7532;BME280;3807;49.030;8.714;2023-05-21T12:43:43;98875.56;;;27.47;44.21
7532;BME280;3807;49.030;8.714;2023-05-21T12:46:12;98868.25;;;27.43;44.66
7532;BME280;3807;49.030;8.714;2023-05-21T12:48:54;98870.56;;;27.38;44.51
7532;BME280;3807;49.030;8.714;2023-05-21T12:51:20;98871.56;;;27.28;44.63
7532;BME280;3807;49.030;8.714;2023-05-21T12:53:46;98871.56;;;27.28;44.78
7532;BME280;3807;49.030;8.714;2023-05-21T12:56:12;98875.13;;;27.36;45.04
7532;BME280;3807;49.030;8.714;2023-05-21T12:58:39;98874.88;;;27.62;44.47
7532;BME280;3807;49.030;8.714;2023-05-21T13:01:11;98872.94;;;27.55;44.60
7532;BME280;3807;49.030;8.714;2023-05-21T13:03:37;98877.62;;;27.60;44.43
7532;BME280;3807;49.030;8.714;2023-05-21T13:06:06;98880.13;;;27.53;44.37
7532;BME280;3807;49.030;8.714;2023-05-21T13:08:32;98874.56;;;27.88;43.68
7532;BME280;3807;49.030;8.714;2023-05-21T13:11:02;98873.41;;;27.90;43.47
7532;BME280;3807;49.030;8.714;2023-05-21T13:13:27;98870.84;;;27.82;43.39
7532;BME280;3807;49.030;8.714;2023-05-21T13:15:53;98874.50;;;27.96;43.69
7532;BME280;3807;49.030;8.714;2023-05-21T13:18:20;98866.28;;;28.07;43.42
7532;BME280;3807;49.030;8.714;2023-05-21T13:20:46;98870.06;;;28.05;43.85
7532;BME280;3807;49.030;8.714;2023-05-21T13:23:12;98866.66;;;28.19;43.27
7532;BME280;3807;49.030;8.714;2023-05-21T13:25:38;98864.87;;;28.19;43.18
7532;BME280;3807;49.030;8.714;2023-05-21T13:28:03;98865.22;;;28.16;42.35
7532;BME280;3807;49.030;8.714;2023-05-21T13:30:29;98863.34;;;28.25;42.12
7532;BME280;3807;49.030;8.714;2023-05-21T13:32:54;98863.72;;;28.22;43.34
7532;BME280;3807;49.030;8.714;2023-05-21T13:35:20;98865.22;;;28.39;43.01
7532;BME280;3807;49.030;8.714;2023-05-21T13:37:45;98867.16;;;28.37;42.46
7532;BME280;3807;49.030;8.714;2023-05-21T13:40:12;98867.16;;;28.45;41.15
7532;BME280;3807;49.030;8.714;2023-05-21T13:42:39;98868.94;;;28.45;42.93
7532;BME280;3807;49.030;8.714;2023-05-21T13:45:08;98871.31;;;28.55;42.57
7532;BME280;3807;49.030;8.714;2023-05-21T13:47:34;98866.25;;;28.53;42.80
7532;BME280;3807;49.030;8.714;2023-05-21T13:50:00;98864.25;;;28.55;41.75